SHM weather

Nanki Shirahama Airport
Shirahama, Wakayama Prefecture, Japan

Public forecast

Using degrees Celsius for public forecast. Weather courtesy of forecast.io.

METAR (pilot weather report)

Report is more than 6 hours old.

Retrieved 2019/05/19 10:00 UTC (8 hours ago):

RJBD 191000Z 10012KT 070V130 9999 FEW020 SCT030 BKN150 20/13 Q1016

TAF (pilot weather forecast)

Closest forecast is Kansai International Airport, 46.3 nm (85.8 km) N. Retrieved 2019/05/19 12:00 UTC (6 hours ago):

TAF RJBB 191105Z 1912/2018 09004KT 9999 FEW030 SCT050 TEMPO 2009/2018 4000 SHRA BR FEW005 BKN008 BKN015 BECMG 2012/2015 20012KT